createdAt,value
2023-02-05T00:02:33.267Z,7.10
2023-02-05T00:05:01.135Z,7.60
2023-02-05T00:07:28.694Z,7.35
2023-02-05T00:09:56.084Z,7.70
2023-02-05T00:12:23.637Z,8.35
2023-02-05T00:14:51.062Z,8.07
2023-02-05T00:19:45.908Z,9.32
2023-02-05T00:22:13.472Z,8.63
2023-02-05T00:24:40.936Z,7.90
2023-02-05T00:27:10.207Z,7.55
2023-02-05T00:29:37.686Z,8.75
2023-02-05T00:32:05.252Z,7.57
2023-02-05T00:34:32.801Z,7.78
2023-02-05T00:37:00.272Z,8.07
2023-02-05T00:44:22.026Z,7.32
2023-02-05T00:49:16.599Z,8.15
2023-02-05T00:54:11.702Z,7.18
2023-02-05T00:56:39.281Z,7.95
2023-02-05T00:59:06.667Z,7.38
2023-02-05T01:01:34.466Z,7.25
2023-02-05T01:04:01.952Z,7.32
2023-02-05T01:06:29.391Z,6.70
2023-02-05T01:08:56.903Z,6.93
2023-02-05T01:11:24.435Z,6.40
2023-02-05T01:16:19.220Z,6.70
2023-02-05T01:18:46.651Z,7.13
2023-02-05T01:21:14.286Z,6.95
2023-02-05T01:23:41.711Z,6.43
2023-02-05T01:26:09.289Z,6.85
2023-02-05T01:28:36.745Z,6.63
2023-02-05T01:31:04.456Z,6.65
2023-02-05T01:33:32.121Z,6.80
2023-02-05T01:35:59.604Z,6.68
2023-02-05T01:40:54.269Z,7.13
2023-02-05T01:45:57.824Z,6.35
2023-02-05T01:48:29.785Z,6.40
2023-02-05T01:51:01.303Z,7.05
2023-02-05T01:53:32.694Z,6.95
2023-02-05T01:56:03.577Z,7.13
2023-02-05T01:58:35.990Z,6.53
2023-02-05T02:01:03.602Z,7.15
2023-02-05T02:03:32.451Z,6.72
2023-02-05T02:06:00.491Z,7.07
2023-02-05T02:08:28.174Z,6.40
2023-02-05T02:10:58.380Z,6.35
2023-02-05T02:13:28.240Z,6.10
2023-02-05T02:15:57.081Z,6.47
2023-02-05T02:18:26.462Z,6.07
2023-02-05T02:21:31.654Z,5.93
2023-02-05T02:24:02.307Z,5.90
2023-02-05T02:26:40.864Z,6.85
2023-02-05T02:29:18.300Z,5.18
2023-02-05T02:31:58.902Z,5.43
2023-02-05T02:35:04.594Z,5.43
2023-02-05T02:37:48.159Z,4.93
2023-02-05T02:40:23.840Z,4.78
2023-02-05T02:43:22.009Z,4.90
2023-02-05T02:45:53.633Z,4.97
2023-02-05T02:48:25.398Z,4.20
2023-02-05T02:50:54.121Z,4.63
2023-02-05T02:53:26.840Z,4.47
2023-02-05T02:55:57.679Z,4.03
2023-02-05T02:58:40.478Z,5.20
2023-02-05T03:01:10.275Z,4.13
2023-02-05T03:03:44.758Z,4.43
2023-02-05T03:06:14.535Z,4.10
2023-02-05T03:09:04.676Z,4.10
2023-02-05T03:11:33.940Z,4.10
2023-02-05T03:14:01.794Z,3.88
2023-02-05T03:16:33.425Z,4.43
2023-02-05T03:19:02.973Z,4.20
2023-02-05T03:21:40.539Z,4.20
2023-02-05T03:24:08.509Z,4.15
2023-02-05T03:26:36.729Z,4.90
2023-02-05T03:29:33.305Z,4.72
2023-02-05T03:32:23.623Z,4.60
2023-02-05T03:35:13.275Z,4.97
2023-02-05T03:38:03.198Z,5.43
2023-02-05T03:40:48.211Z,5.13
2023-02-05T03:43:33.766Z,4.82
2023-02-05T03:46:02.046Z,5.22
2023-02-05T03:48:36.219Z,5.28
2023-02-05T03:51:22.812Z,4.80
2023-02-05T03:54:04.538Z,4.82
2023-02-05T03:56:55.559Z,5.90
2023-02-05T03:59:26.220Z,5.35
2023-02-05T04:01:55.048Z,4.97
2023-02-05T04:04:23.071Z,5.25
2023-02-05T04:06:53.545Z,7.38
2023-02-05T04:09:21.277Z,5.43
2023-02-05T04:11:48.948Z,5.18
2023-02-05T04:14:19.242Z,5.50
2023-02-05T04:16:46.788Z,5.15
2023-02-05T04:21:41.720Z,5.30
2023-02-05T04:24:09.252Z,6.13
2023-02-05T04:26:36.920Z,5.07
2023-02-05T04:29:07.055Z,4.90
2023-02-05T04:31:41.430Z,5.47
2023-02-05T04:34:09.015Z,5.68
2023-02-05T04:36:38.692Z,5.05
2023-02-05T04:39:06.262Z,5.43
2023-02-05T04:44:00.904Z,5.13
2023-02-05T04:48:55.882Z,6.10
2023-02-05T04:51:23.352Z,5.22
2023-02-05T04:53:50.778Z,5.07
2023-02-05T04:58:46.749Z,5.15
2023-02-05T05:01:17.091Z,5.38
2023-02-05T05:03:45.428Z,5.20
2023-02-05T05:06:13.634Z,4.63
2023-02-05T05:08:43.531Z,5.70
2023-02-05T05:11:17.688Z,5.38
2023-02-05T05:13:46.111Z,4.75
2023-02-05T05:16:13.768Z,5.40
2023-02-05T05:18:42.025Z,5.05
2023-02-05T05:21:10.381Z,5.28
2023-02-05T05:23:38.716Z,4.95
2023-02-05T05:26:11.953Z,4.65
2023-02-05T05:28:39.834Z,4.90
2023-02-05T05:31:09.645Z,4.72
2023-02-05T05:33:38.075Z,4.80
2023-02-05T05:36:06.913Z,4.80
2023-02-05T05:38:35.204Z,5.25
2023-02-05T05:41:21.071Z,4.40
2023-02-05T05:43:49.032Z,4.80
2023-02-05T05:46:23.015Z,4.95
2023-02-05T05:48:55.913Z,4.80
2023-02-05T05:51:25.378Z,4.72
2023-02-05T05:53:53.026Z,4.85
2023-02-05T05:56:21.629Z,5.30
2023-02-05T05:58:49.631Z,4.68
2023-02-05T06:01:19.255Z,4.93
2023-02-05T06:03:46.735Z,4.80
2023-02-05T06:06:14.284Z,4.78
2023-02-05T06:11:08.990Z,5.05
2023-02-05T06:13:36.475Z,4.57
2023-02-05T06:16:04.722Z,4.22
2023-02-05T06:18:32.128Z,4.93
2023-02-05T06:20:59.814Z,5.32
2023-02-05T06:23:27.299Z,5.03
2023-02-05T06:25:54.775Z,4.85
2023-02-05T06:30:49.649Z,5.00
2023-02-05T06:33:17.169Z,4.97
2023-02-05T06:35:44.604Z,4.93
2023-02-05T06:43:06.566Z,4.45
2023-02-05T06:45:34.177Z,4.55
2023-02-05T06:48:01.854Z,4.60
2023-02-05T06:50:29.330Z,3.88
2023-02-05T06:55:24.486Z,4.30
2023-02-05T06:57:51.984Z,4.72
2023-02-05T07:00:19.654Z,4.28
2023-02-05T07:02:47.213Z,4.60
2023-02-05T07:05:14.867Z,4.18
2023-02-05T07:07:42.467Z,4.45
2023-02-05T07:10:10.244Z,4.07
2023-02-05T07:12:37.684Z,4.38
2023-02-05T07:15:05.470Z,4.28
2023-02-05T07:17:32.895Z,4.40
2023-02-05T07:20:00.395Z,4.63
2023-02-05T07:24:55.575Z,4.75
2023-02-05T07:27:23.027Z,3.97
2023-02-05T07:29:50.541Z,4.05
2023-02-05T07:32:17.980Z,4.30
2023-02-05T07:34:45.552Z,3.97
2023-02-05T07:37:15.956Z,4.00
2023-02-05T07:39:43.465Z,4.28
2023-02-05T07:42:12.394Z,4.20
2023-02-05T07:44:48.714Z,4.10
2023-02-05T07:47:16.355Z,4.07
2023-02-05T07:49:43.718Z,5.07
2023-02-05T07:57:07.005Z,4.63
2023-02-05T07:59:34.692Z,5.13
2023-02-05T08:02:02.414Z,4.80
2023-02-05T08:04:30.182Z,4.40
2023-02-05T08:06:57.752Z,4.70
2023-02-05T08:09:25.165Z,4.68
2023-02-05T08:11:52.705Z,5.00
2023-02-05T08:14:20.166Z,4.93
2023-02-05T08:16:47.647Z,5.15
2023-02-05T08:21:44.494Z,4.60
2023-02-05T08:24:12.152Z,5.38
2023-02-05T08:26:40.427Z,5.07
2023-02-05T08:29:08.542Z,4.93
2023-02-05T08:31:36.665Z,5.07
2023-02-05T08:34:05.172Z,5.22
2023-02-05T08:36:32.903Z,6.20
2023-02-05T08:41:27.767Z,5.95
2023-02-05T08:43:55.219Z,5.70
2023-02-05T08:46:28.182Z,5.65
2023-02-05T08:48:59.307Z,5.95
2023-02-05T08:51:26.837Z,5.45
2023-02-05T08:53:55.834Z,5.32
2023-02-05T08:56:23.337Z,5.45
2023-02-05T08:58:50.810Z,6.68
2023-02-05T09:03:46.361Z,6.55
2023-02-05T09:06:16.395Z,5.85
2023-02-05T09:08:43.963Z,6.47
2023-02-05T09:11:13.559Z,5.82
2023-02-05T09:13:41.336Z,5.40
2023-02-05T09:16:11.314Z,5.63
2023-02-05T09:18:39.337Z,5.50
2023-02-05T09:21:08.944Z,5.40
2023-02-05T09:23:37.705Z,5.07
2023-02-05T09:26:05.969Z,5.57
2023-02-05T09:28:33.443Z,5.28
2023-02-05T09:33:32.112Z,4.38
2023-02-05T09:36:05.599Z,4.70
2023-02-05T09:38:33.380Z,4.53
2023-02-05T09:41:07.576Z,4.70
2023-02-05T09:43:44.134Z,4.47
2023-02-05T09:46:26.019Z,4.35
2023-02-05T09:49:02.562Z,4.00
2023-02-05T09:51:41.783Z,5.05
2023-02-05T09:54:18.472Z,4.38
2023-02-05T09:56:48.388Z,4.25
2023-02-05T09:59:19.740Z,4.45
2023-02-05T10:01:52.120Z,4.60
2023-02-05T10:04:19.992Z,4.53
2023-02-05T10:07:05.550Z,5.00
2023-02-05T10:09:48.186Z,5.53
2023-02-05T10:12:50.830Z,5.13
2023-02-05T10:15:45.789Z,4.55
2023-02-05T10:18:30.242Z,4.50
2023-02-05T10:21:22.561Z,4.32
2023-02-05T10:23:50.089Z,5.07
2023-02-05T10:31:21.465Z,4.97
2023-02-05T10:33:58.762Z,4.85
2023-02-05T10:38:56.875Z,4.70
2023-02-05T10:41:34.175Z,5.15
2023-02-05T10:44:12.499Z,4.32
2023-02-05T10:46:41.176Z,4.35
2023-02-05T10:49:12.694Z,4.43
2023-02-05T10:51:42.745Z,3.92
2023-02-05T10:54:32.068Z,4.13
2023-02-05T10:57:00.841Z,4.32
2023-02-05T10:59:31.231Z,4.00
2023-02-05T11:02:09.806Z,3.60
2023-02-05T11:04:52.132Z,3.92
2023-02-05T11:07:35.771Z,3.85
2023-02-05T11:10:26.828Z,3.30
2023-02-05T11:12:58.628Z,3.03
2023-02-05T11:15:28.612Z,2.90
2023-02-05T11:18:00.713Z,2.80
2023-02-05T11:20:38.942Z,2.92
2023-02-05T11:23:20.004Z,2.75
2023-02-05T11:25:59.493Z,2.97
2023-02-05T11:28:28.286Z,3.10
2023-02-05T11:30:57.341Z,2.88
2023-02-05T11:33:28.378Z,2.40
2023-02-05T11:36:05.190Z,2.72
2023-02-05T11:38:32.777Z,2.70
2023-02-05T11:41:04.501Z,2.65
2023-02-05T11:43:38.245Z,2.42
2023-02-05T11:46:10.032Z,2.30
2023-02-05T11:48:39.561Z,2.60
2023-02-05T11:51:09.614Z,2.95
2023-02-05T11:53:38.820Z,3.10
2023-02-05T11:56:12.229Z,3.15
2023-02-05T11:58:39.813Z,3.10
2023-02-05T12:01:24.035Z,3.28
2023-02-05T12:04:07.457Z,3.60
2023-02-05T12:06:42.631Z,3.00
2023-02-05T12:09:19.496Z,2.70
2023-02-05T12:12:04.314Z,2.80
2023-02-05T12:14:53.922Z,2.63
2023-02-05T12:17:39.934Z,2.60
2023-02-05T12:20:10.186Z,2.50
2023-02-05T12:23:07.856Z,2.60
2023-02-05T12:25:47.658Z,2.47
2023-02-05T12:28:37.280Z,2.38
2023-02-05T12:31:22.414Z,2.17
2023-02-05T12:34:01.554Z,2.45
2023-02-05T12:37:05.855Z,2.55
2023-02-05T12:39:43.329Z,2.42
2023-02-05T12:42:20.348Z,2.08
2023-02-05T12:45:07.807Z,2.28
2023-02-05T12:47:53.799Z,2.22
2023-02-05T12:50:35.999Z,2.35
2023-02-05T12:53:19.971Z,2.58
2023-02-05T12:55:56.503Z,2.83
2023-02-05T12:58:34.344Z,2.63
2023-02-05T13:01:08.948Z,2.58
2023-02-05T13:04:01.092Z,2.72
2023-02-05T13:06:43.937Z,2.92
2023-02-05T13:09:29.085Z,2.53
2023-02-05T13:12:02.224Z,2.50
2023-02-05T13:14:56.853Z,2.83
2023-02-05T13:17:28.394Z,2.92
2023-02-05T13:20:00.658Z,2.65
2023-02-05T13:23:27.346Z,2.95
2023-02-05T13:26:14.821Z,2.40
2023-02-05T13:28:47.706Z,1.92
2023-02-05T13:31:25.823Z,2.05
2023-02-05T13:33:56.634Z,2.20
2023-02-05T13:36:24.110Z,1.95
2023-02-05T13:39:03.589Z,2.00
2023-02-05T13:41:31.004Z,2.40
2023-02-05T13:46:46.862Z,2.03
2023-02-05T13:49:58.893Z,2.47
2023-02-05T13:52:54.208Z,1.98
2023-02-05T13:55:53.122Z,2.22
2023-02-05T13:58:32.517Z,2.03
2023-02-05T14:01:02.592Z,2.00
2023-02-05T14:03:39.731Z,2.00
2023-02-05T14:09:19.525Z,2.25
2023-02-05T14:12:03.333Z,2.22
2023-02-05T14:14:32.050Z,2.20
2023-02-05T14:17:00.917Z,2.33
2023-02-05T14:19:46.903Z,2.15
2023-02-05T14:22:40.150Z,2.90
2023-02-05T14:25:39.011Z,2.30
2023-02-05T14:28:19.093Z,1.75
2023-02-05T14:31:00.015Z,1.70
2023-02-05T14:33:30.467Z,2.03
2023-02-05T14:35:59.205Z,2.20
2023-02-05T14:38:33.349Z,2.15
2023-02-05T14:41:15.237Z,1.92
2023-02-05T14:43:46.675Z,1.98
2023-02-05T14:46:33.102Z,2.38
2023-02-05T14:49:03.750Z,1.80
2023-02-05T14:51:38.939Z,1.90
2023-02-05T14:54:23.345Z,1.88
2023-02-05T14:57:09.932Z,1.60
2023-02-05T15:00:03.012Z,1.83
2023-02-05T15:03:21.588Z,1.73
2023-02-05T15:06:00.031Z,1.77
2023-02-05T15:08:44.337Z,1.77
2023-02-05T15:11:15.915Z,1.38
2023-02-05T15:14:18.802Z,1.83
2023-02-05T15:17:14.094Z,1.40
2023-02-05T15:19:50.100Z,1.48
2023-02-05T15:22:35.515Z,1.50
2023-02-05T15:25:09.024Z,1.20
2023-02-05T15:27:47.366Z,2.30
2023-02-05T15:30:20.695Z,1.30
2023-02-05T15:32:59.203Z,1.40
2023-02-05T15:35:30.669Z,1.60
2023-02-05T15:38:10.041Z,1.88
2023-02-05T15:40:41.693Z,1.40
2023-02-05T15:43:38.401Z,1.52
2023-02-05T15:46:08.892Z,1.40
2023-02-05T15:48:39.842Z,1.83
2023-02-05T15:51:28.358Z,1.52
2023-02-05T15:53:58.222Z,1.67
2023-02-05T15:56:41.409Z,1.48
2023-02-05T15:59:17.490Z,1.50
2023-02-05T16:01:49.957Z,1.90
2023-02-05T16:04:27.745Z,1.65
2023-02-05T16:06:55.229Z,1.48
2023-02-05T16:11:52.875Z,1.73
2023-02-05T16:14:23.042Z,1.52
2023-02-05T16:16:57.474Z,1.65
2023-02-05T16:19:30.546Z,1.15
2023-02-05T16:22:24.369Z,1.13
2023-02-05T16:24:57.725Z,1.27
2023-02-05T16:27:43.264Z,1.25
2023-02-05T16:30:19.922Z,1.15
2023-02-05T16:32:48.573Z,1.40
2023-02-05T16:35:27.678Z,1.25
2023-02-05T16:37:55.928Z,1.30
2023-02-05T16:40:37.071Z,1.30
2023-02-05T16:43:23.026Z,1.60
2023-02-05T16:46:08.904Z,1.70
2023-02-05T16:48:45.430Z,1.83
2023-02-05T16:51:45.158Z,1.80
2023-02-05T16:54:13.507Z,1.88
2023-02-05T16:57:07.553Z,1.40
2023-02-05T16:59:38.746Z,1.55
2023-02-05T17:02:06.557Z,1.52
2023-02-05T17:04:37.796Z,2.00
2023-02-05T17:07:17.444Z,1.73
2023-02-05T17:09:45.146Z,2.03
2023-02-05T17:12:38.739Z,1.73
2023-02-05T17:15:34.180Z,2.00
2023-02-05T17:18:24.584Z,2.80
2023-02-05T17:20:52.140Z,2.03
2023-02-05T17:23:19.560Z,2.33
2023-02-05T17:25:47.044Z,2.22
2023-02-05T17:30:45.561Z,2.15
2023-02-05T17:33:17.678Z,1.85
2023-02-05T17:35:45.253Z,2.05
2023-02-05T17:38:12.749Z,2.45
2023-02-05T17:40:40.711Z,2.33
2023-02-05T17:43:08.223Z,2.70
2023-02-05T17:45:39.687Z,2.63
2023-02-05T17:48:08.427Z,2.42
2023-02-05T17:50:36.902Z,2.70
2023-02-05T17:53:04.901Z,2.22
2023-02-05T17:55:32.869Z,2.35
2023-02-05T17:58:00.369Z,2.58
2023-02-05T18:02:55.781Z,2.67
2023-02-05T18:07:56.940Z,3.40
2023-02-05T18:10:28.278Z,3.15
2023-02-05T18:12:56.284Z,3.03
2023-02-05T18:15:25.143Z,3.30
2023-02-05T18:17:53.555Z,3.05
2023-02-05T18:20:21.390Z,3.47
2023-02-05T18:22:49.446Z,3.45
2023-02-05T18:25:17.111Z,3.60
2023-02-05T18:27:44.984Z,3.17
2023-02-05T18:30:13.218Z,3.50
2023-02-05T18:32:41.008Z,3.35
2023-02-05T18:35:12.636Z,2.88
2023-02-05T18:37:44.181Z,3.20
2023-02-05T18:40:13.807Z,3.75
2023-02-05T18:42:41.726Z,3.20
2023-02-05T18:45:09.896Z,3.58
2023-02-05T18:47:37.338Z,3.65
2023-02-05T18:50:05.632Z,3.53
2023-02-05T18:52:35.745Z,4.00
2023-02-05T18:55:03.846Z,3.80
2023-02-05T18:57:31.236Z,3.78
2023-02-05T18:59:59.144Z,4.10
2023-02-05T19:02:26.548Z,3.30
2023-02-05T19:07:24.914Z,3.90
2023-02-05T19:09:53.147Z,3.90
2023-02-05T19:12:20.580Z,3.80
2023-02-05T19:14:49.964Z,3.80
2023-02-05T19:17:17.438Z,4.65
2023-02-05T19:19:45.016Z,3.60
2023-02-05T19:24:40.570Z,3.88
2023-02-05T19:27:08.033Z,3.90
2023-02-05T19:29:39.757Z,3.83
2023-02-05T19:32:08.313Z,3.63
2023-02-05T19:34:38.554Z,3.90
2023-02-05T19:37:06.290Z,4.57
2023-02-05T19:39:33.647Z,4.40
2023-02-05T19:46:58.506Z,4.20
2023-02-05T19:49:26.033Z,4.68
2023-02-05T19:51:55.353Z,4.10
2023-02-05T19:54:23.385Z,3.90
2023-02-05T19:56:51.605Z,3.78
2023-02-05T19:59:19.516Z,4.00
2023-02-05T20:01:47.735Z,4.32
2023-02-05T20:04:24.946Z,4.20
2023-02-05T20:09:24.004Z,4.53
2023-02-05T20:11:53.648Z,4.60
2023-02-05T20:14:22.140Z,3.90
2023-02-05T20:16:50.230Z,4.35
2023-02-05T20:19:18.745Z,4.18
2023-02-05T20:21:47.130Z,4.10
2023-02-05T20:24:16.474Z,5.07
2023-02-05T20:26:47.871Z,4.55
2023-02-05T20:29:35.990Z,4.65
2023-02-05T20:32:04.081Z,4.18
2023-02-05T20:34:35.666Z,3.65
2023-02-05T20:37:06.919Z,3.80
2023-02-05T20:39:35.377Z,4.13
2023-02-05T20:42:03.296Z,4.75
2023-02-05T20:44:33.981Z,4.20
2023-02-05T20:47:02.955Z,4.90
2023-02-05T20:49:30.537Z,4.93
2023-02-05T20:51:58.160Z,4.82
2023-02-05T20:56:59.905Z,4.28
2023-02-05T20:59:31.489Z,3.63
2023-02-05T21:01:59.462Z,4.13
2023-02-05T21:04:27.158Z,4.28
2023-02-05T21:06:55.091Z,4.20
2023-02-05T21:09:22.816Z,4.22
2023-02-05T21:11:55.355Z,4.53
2023-02-05T21:14:23.860Z,4.22
2023-02-05T21:16:51.535Z,4.25
2023-02-05T21:19:19.512Z,3.60
2023-02-05T21:21:47.041Z,4.38
2023-02-05T21:24:16.308Z,4.90
2023-02-05T21:26:46.320Z,3.88
2023-02-05T21:29:17.270Z,4.13
2023-02-05T21:31:50.100Z,3.70
2023-02-05T21:34:21.913Z,3.95
2023-02-05T21:36:50.951Z,3.53
2023-02-05T21:39:22.185Z,3.63
2023-02-05T21:41:54.322Z,3.97
2023-02-05T21:44:22.643Z,3.88
2023-02-05T21:46:50.258Z,3.38
2023-02-05T21:49:17.850Z,3.58
2023-02-05T21:54:12.636Z,4.07
2023-02-05T21:59:17.526Z,3.70
2023-02-05T22:01:45.248Z,4.13
2023-02-05T22:04:15.176Z,3.97
2023-02-05T22:06:44.332Z,4.65
2023-02-05T22:09:14.302Z,3.80
2023-02-05T22:11:42.466Z,3.70
2023-02-05T22:14:10.789Z,3.65
2023-02-05T22:16:38.540Z,3.80
2023-02-05T22:19:08.936Z,4.00
2023-02-05T22:21:39.531Z,3.78
2023-02-05T22:24:10.921Z,3.55
2023-02-05T22:26:39.619Z,3.70
2023-02-05T22:29:09.140Z,4.13
2023-02-05T22:31:37.034Z,3.80
2023-02-05T22:34:05.263Z,3.95
2023-02-05T22:36:34.757Z,3.70
2023-02-05T22:39:02.606Z,4.30
2023-02-05T22:41:46.881Z,4.05
2023-02-05T22:44:14.333Z,3.88
2023-02-05T22:49:11.868Z,3.58
2023-02-05T22:51:40.505Z,3.83
2023-02-05T22:54:10.983Z,3.60
2023-02-05T22:56:38.940Z,4.22
2023-02-05T22:59:06.754Z,4.53
2023-02-05T23:01:36.071Z,3.90
2023-02-05T23:04:05.624Z,3.40
2023-02-05T23:06:36.159Z,3.50
2023-02-05T23:09:12.616Z,4.28
2023-02-05T23:11:40.464Z,3.85
2023-02-05T23:14:08.845Z,3.70
2023-02-05T23:16:39.755Z,3.70
2023-02-05T23:19:11.190Z,3.65
2023-02-05T23:21:40.569Z,4.57
2023-02-05T23:24:08.772Z,3.58
2023-02-05T23:26:41.910Z,4.55
2023-02-05T23:29:11.904Z,3.58
2023-02-05T23:31:39.446Z,3.40
2023-02-05T23:34:07.334Z,3.85
2023-02-05T23:36:34.828Z,4.05
2023-02-05T23:39:02.641Z,3.60
2023-02-05T23:41:36.358Z,4.03
2023-02-05T23:44:18.927Z,3.88
2023-02-05T23:46:48.255Z,3.90
2023-02-05T23:49:16.827Z,4.65
2023-02-05T23:51:44.411Z,5.32
2023-02-05T23:54:11.962Z,4.10
2023-02-05T23:56:40.077Z,4.40
2023-02-05T23:59:09.393Z,3.80
